Terminal Aerodrome Forecast
Issued by NWS

Home | Current Version | Previous Version | Graphics & Text | Print | Product List | Glossary On
Versions: 1 2 3 4 5 6 7 8 9 10 11 12 13
000
FTUS45 KGGW 221142
TAFSDY
TAF
KSDY 221142Z 2212/2312 21010KT P6SM FEW150
     FM221900 24020KT P6SM VCSH OVC070
     FM222100 26024G34KT P6SM VCSH BKN070
     FM230200 27020G31KT P6SM FEW090=

USA.gov is the U.S. government's official web portal to all federal, state and local government web resources and services.